Aeroporto :
LOGIN :

Iscrizione | Disclaimer

   EN    FR    IT 

 










Sommario :    VFR   VFR Marginale   IFR   IFR Intensivo   IFR Molto Intensivo
Visibilità : 
Base nubi : 
>= 8 km
>= 3000ft
5 / 8 km
1000 / 3000 ft
1500m / 5 km
500 / 1000 ft
800 / 1500m
200 / 500 ft
< 800m
< 200 ft
Simboli :   Temporali  Nebbia  Neve Forte  Precipitazioni Forti  Vento > 20 kt
SIGMETs :   Varie  Temporali  Ghiacco  Turbolenza  Onda orograficha  Ceneri Vulcaniche







- Altitudine del aeroporto : 65 ft
- Codice IATA : PMO


LICJ - Palermo Punta Raisi

ULTIMO METAR :
  • 130120Z 20013KT 9999 SCT070 13/10 Q1015

METARs OBSOLETI :
  • 130050Z 20014KT 9999 SCT030 13/10 Q1015
  • 122350Z 20012KT 9999 SCT070 13/10 Q1015
  • 122320Z 20012KT 9999 SCT030 13/10 Q1016 RERA
  • 122250Z 20009KT 9999 RA SCT040 12/11 Q1016

TAF TAF LICJ
Valido dal 13 a 00 ore il 14 a 00 ore UTC


122300Z 1300/1324 21012KT 9999 SCT030
TEMPO 1300/1306 RA
Nessun NOTAM noto per questo aeroporto.



MetMap, La meteo Aeronautica in un colpo d'occhio ! - Copyright ORBIFLY Dicembre 2007 - Disclaimer

ORBIFLY MET'MAP TEAM :

Programmazione e sviluppo : Alexandra Zaïnal
Concezione e sviluppo : Baudouin d'Aumeries
Co-Programmazione e sviluppo : Marc-Olivier Méhu
Supporto tecnico e logistico : Manuel Goepfert
Aiuto per la traduzione : Arnaldo La Scala

Contatto : metmap@orbifly.com




FONTI E CREDITI :

   NOAA